Time;durP1;ratioP1;P1;durP2;ratioP2;P2;SDS_P1;SDS_P2;PMS_P1;PMS_P2;Temp;Humidity;BMP_temperature;BMP_pressure;BME280_temperature;BME280_humidity;BME280_pressure;Samples;Min_cycle;Max_cycle;Signal;HPM_P1;HPM_P2
2022/09/04 00:01:59;;;;;;;4.43;4.23;;;;;;;21.94;94.32;99702.91;5072045;28;20290;-68
2022/09/04 00:04:34;;;;;;;5.40;3.60;;;;;;;21.97;94.62;99702.69;5070543;28;20705;-68
2022/09/04 00:07:13;;;;;;;3.93;3.73;;;;;;;21.98;94.22;99701.75;5070999;28;20195;-68
2022/09/04 00:09:48;;;;;;;3.83;3.63;;;;;;;21.99;93.75;99699.97;5072134;28;20219;-68
2022/09/04 00:12:23;;;;;;;5.07;4.13;;;;;;;22.00;93.86;99706.03;5071865;28;20686;-68
2022/09/04 00:14:59;;;;;;;4.40;4.20;;;;;;;21.87;93.91;99693.81;5072006;28;20199;-68
2022/09/04 00:17:30;;;;;;;4.07;3.87;;;;;;;21.75;94.05;99680.81;5071833;28;20199;-68
2022/09/04 00:20:03;;;;;;;5.50;3.97;;;;;;;22.00;94.44;99721.72;5073741;28;20199;-68
2022/09/04 00:22:35;;;;;;;4.60;4.20;;;;;;;21.97;94.29;99718.34;5071777;28;20710;-68
2022/09/04 00:25:09;;;;;;;5.03;4.63;;;;;;;21.90;95.06;99724.16;5071427;28;20672;-68
2022/09/04 00:27:43;;;;;;;4.57;4.27;;;;;;;21.78;95.65;99728.41;5070496;28;20214;-68
2022/09/04 00:30:14;;;;;;;4.90;4.60;;;;;;;21.74;95.71;99731.38;5070448;28;20272;-68
2022/09/04 00:32:45;;;;;;;6.63;4.57;;;;;;;21.57;96.84;99714.28;5071205;28;20245;-68
2022/09/04 00:35:16;;;;;;;4.33;4.13;;;;;;;21.68;97.04;99737.81;5071238;28;20195;-68
2022/09/04 00:37:48;;;;;;;4.57;4.37;;;;;;;21.62;97.57;99737.41;5070079;28;20199;-68
2022/09/04 00:40:24;;;;;;;4.50;4.30;;;;;;;21.52;98.43;99742.44;5071025;28;20204;-68
2022/09/04 00:43:21;;;;;;;5.00;4.73;;;;;;;21.40;99.30;99745.91;5071056;28;20272;-68
2022/09/04 00:46:03;;;;;;;5.27;5.03;;;;;;;21.19;100.00;99722.16;5066426;28;20202;-68
2022/09/04 00:49:16;;;;;;;5.20;4.93;;;;;;;21.20;100.00;99749.03;5071816;28;20198;-68
2022/09/04 00:51:53;;;;;;;4.47;4.27;;;;;;;21.08;100.00;99739.44;5043025;28;20222;-68
2022/09/04 00:54:46;;;;;;;4.67;4.47;;;;;;;21.02;100.00;99745.06;5071030;28;20205;-68
2022/09/04 00:58:00;;;;;;;5.23;4.93;;;;;;;20.95;100.00;99742.88;5070839;28;20196;-68
2022/09/04 01:00:29;;;;;;;4.73;4.50;;;;;;;20.89;100.00;99734.63;5042916;28;20195;-68
2022/09/04 01:03:18;;;;;;;4.73;4.53;;;;;;;20.93;100.00;99744.75;5070240;28;20199;-68
2022/09/04 01:06:11;;;;;;;5.30;5.00;;;;;;;20.87;100.00;99745.13;5070525;28;20221;-68
2022/09/04 01:08:58;;;;;;;5.20;5.00;;;;;;;20.80;100.00;99743.91;5057760;28;20205;-68
2022/09/04 01:11:37;;;;;;;5.13;4.70;;;;;;;20.65;100.00;99720.63;5070516;28;20263;-68
2022/09/04 01:14:12;;;;;;;5.13;4.83;;;;;;;20.78;100.00;99750.97;5070566;28;20201;-68
2022/09/04 01:16:47;;;;;;;5.30;5.10;;;;;;;20.81;100.00;99750.75;5070898;28;20229;-68
2022/09/04 01:19:40;;;;;;;7.77;5.13;;;;;;;20.69;100.00;99756.78;5069025;28;20264;-68
2022/09/04 01:22:34;;;;;;;5.20;4.80;;;;;;;20.71;100.00;99754.09;5069641;28;20212;-68
2022/09/04 01:25:16;;;;;;;5.10;4.90;;;;;;;20.60;100.00;99749.59;5068318;28;20202;-68
2022/09/04 01:27:50;;;;;;;5.60;5.10;;;;;;;20.60;100.00;99754.81;5069063;28;20678;-68
2022/09/04 01:30:19;;;;;;;5.47;5.03;;;;;;;20.54;100.00;99750.00;5070317;28;20319;-68
2022/09/04 01:32:59;;;;;;;6.10;5.60;;;;;;;20.45;100.00;99750.59;5070509;28;20199;-68
2022/09/04 01:35:34;;;;;;;6.20;5.83;;;;;;;20.40;100.00;99740.47;5070860;28;20197;-68
2022/09/04 01:38:11;;;;;;;6.00;5.70;;;;;;;20.34;100.00;99745.25;5069121;28;20258;-67
2022/09/04 01:40:44;;;;;;;5.90;5.60;;;;;;;20.30;100.00;99754.19;5068631;28;20199;-68
2022/09/04 01:43:16;;;;;;;7.03;6.53;;;;;;;20.21;100.00;99752.13;5068188;28;20509;-68
2022/09/04 01:46:00;;;;;;;6.40;6.00;;;;;;;20.26;100.00;99752.66;5068423;28;20286;-68
2022/09/04 01:48:39;;;;;;;6.60;6.30;;;;;;;20.26;100.00;99750.06;5068439;28;20213;-68
2022/09/04 01:51:12;;;;;;;7.17;6.67;;;;;;;20.18;100.00;99754.94;5068767;28;20599;-68
2022/09/04 01:53:45;;;;;;;7.57;7.00;;;;;;;20.19;100.00;99751.41;5070398;28;20677;-68
2022/09/04 01:56:18;;;;;;;8.13;7.67;;;;;;;20.18;100.00;99753.19;5070152;28;20731;-68
2022/09/04 01:58:55;;;;;;;7.97;7.47;;;;;;;20.13;100.00;99751.81;5070307;28;20224;-68
2022/09/04 02:01:29;;;;;;;8.33;7.80;;;;;;;20.09;100.00;99755.53;5072321;28;20657;-68
2022/09/04 02:04:06;;;;;;;7.93;7.33;;;;;;;20.06;100.00;99760.94;5069794;28;20197;-68
2022/09/04 02:06:47;;;;;;;8.77;8.27;;;;;;;20.02;100.00;99759.44;5070195;28;20201;-68
2022/09/04 02:09:27;;;;;;;8.00;7.50;;;;;;;19.92;100.00;99762.63;5070099;28;20199;-67
2022/09/04 02:12:03;;;;;;;9.00;8.40;;;;;;;19.89;100.00;99768.03;5070062;28;20217;-68
2022/09/04 02:14:40;;;;;;;7.27;6.87;;;;;;;19.83;100.00;99773.63;5070138;28;21177;-68
2022/09/04 02:17:11;;;;;;;9.00;8.47;;;;;;;19.71;100.00;99765.75;5070400;28;20640;-68
2022/09/04 02:19:59;;;;;;;9.13;8.40;;;;;;;19.54;100.00;99738.16;5070210;28;20198;-68
2022/09/04 02:22:38;;;;;;;8.77;8.13;;;;;;;19.62;100.00;99756.72;5066683;28;20206;-68
2022/09/04 02:25:17;;;;;;;9.37;8.47;;;;;;;19.51;100.00;99755.72;5069710;28;20238;-68
2022/09/04 02:27:52;;;;;;;8.93;8.13;;;;;;;19.60;100.00;99753.38;5072200;28;20675;-68
2022/09/04 02:30:21;;;;;;;10.00;9.10;;;;;;;19.63;100.00;99748.00;5073911;28;20220;-67
2022/09/04 02:32:56;;;;;;;13.27;9.27;;;;;;;19.67;100.00;99759.06;5073659;28;20200;-68
2022/09/04 02:35:34;;;;;;;8.70;7.90;;;;;;;19.65;100.00;99753.09;5073503;28;20287;-68
2022/09/04 02:38:12;;;;;;;8.97;8.40;;;;;;;19.57;100.00;99747.53;5073447;28;20252;-68
2022/09/04 02:40:49;;;;;;;9.30;8.70;;;;;;;19.49;100.00;99742.78;5072044;28;20210;-68
2022/09/04 02:43:34;;;;;;;9.57;8.77;;;;;;;19.53;100.00;99757.28;5073652;28;20691;-68
2022/09/04 02:46:10;;;;;;;8.80;8.30;;;;;;;19.42;100.00;99753.69;5073617;28;20197;-68
2022/09/04 02:48:51;;;;;;;9.40;8.77;;;;;;;19.38;100.00;99753.84;5074063;28;20197;-68
2022/09/04 02:51:33;;;;;;;8.83;8.13;;;;;;;19.33;100.00;99752.41;5073689;28;20606;-68
2022/09/04 02:54:06;;;;;;;8.27;7.77;;;;;;;19.36;100.00;99757.44;5073192;28;20291;-68
2022/09/04 02:56:43;;;;;;;8.00;7.47;;;;;;;19.31;100.00;99756.88;5072791;28;20676;-68
2022/09/04 02:59:37;;;;;;;7.83;7.43;;;;;;;19.34;100.00;99752.34;5073376;28;20678;-68
2022/09/04 03:02:13;;;;;;;10.73;8.47;;;;;;;19.41;100.00;99755.44;5071027;28;20196;-68
2022/09/04 03:04:48;;;;;;;7.73;7.17;;;;;;;19.34;100.00;99741.94;5072999;28;20204;-68
2022/09/04 03:07:25;;;;;;;7.33;6.93;;;;;;;19.39;100.00;99758.09;5073068;28;20197;-68
2022/09/04 03:09:59;;;;;;;8.40;7.70;;;;;;;19.45;100.00;99754.31;5072864;28;20203;-68
2022/09/04 03:12:32;;;;;;;8.47;7.97;;;;;;;19.45;100.00;99753.50;5073144;28;20212;-68
2022/09/04 03:15:11;;;;;;;8.53;7.70;;;;;;;19.49;100.00;99755.78;5073502;28;20286;-68
2022/09/04 03:17:47;;;;;;;7.73;7.03;;;;;;;19.55;100.00;99750.22;5073038;28;20201;-68
2022/09/04 03:20:19;;;;;;;7.53;7.03;;;;;;;19.57;100.00;99745.78;5072498;28;20219;-68
2022/09/04 03:22:52;;;;;;;7.50;7.10;;;;;;;19.63;100.00;99758.41;5071253;28;20196;-67
2022/09/04 03:25:38;;;;;;;6.80;6.23;;;;;;;19.66;100.00;99758.22;5072589;28;20196;-68
2022/09/04 03:28:10;;;;;;;7.30;6.90;;;;;;;19.65;100.00;99750.47;5070516;28;20209;-68
2022/09/04 03:30:39;;;;;;;7.10;6.70;;;;;;;19.79;100.00;99764.31;5071362;28;20226;-68
2022/09/04 03:33:15;;;;;;;6.90;6.50;;;;;;;19.83;100.00;99771.03;5072635;28;20202;-68
2022/09/04 03:35:51;;;;;;;7.80;7.30;;;;;;;19.88;100.00;99774.16;5071294;28;20213;-68
2022/09/04 03:38:25;;;;;;;6.37;5.97;;;;;;;19.92;100.00;99769.59;5072339;28;20208;-67
2022/09/04 03:41:05;;;;;;;6.90;6.50;;;;;;;19.95;100.00;99773.78;5072586;28;20198;-68
2022/09/04 03:43:53;;;;;;;8.03;7.03;;;;;;;19.91;100.00;99779.16;5072449;28;20638;-68
2022/09/04 03:46:33;;;;;;;7.83;7.43;;;;;;;19.93;100.00;99782.50;5069576;28;20287;-67
2022/09/04 03:49:17;;;;;;;7.07;6.67;;;;;;;19.95;100.00;99789.38;5070743;28;20194;-68
2022/09/04 03:51:55;;;;;;;5.93;5.63;;;;;;;19.85;100.00;99784.75;5070322;28;20218;-68
2022/09/04 03:54:36;;;;;;;7.90;7.20;;;;;;;19.72;100.00;99783.84;5070230;28;20239;-68
2022/09/04 03:57:17;;;;;;;8.00;7.50;;;;;;;19.69;100.00;99789.22;5064059;28;20580;-68
2022/09/04 04:00:02;;;;;;;6.90;6.43;;;;;;;19.77;100.00;99794.78;5060105;28;20201;-68
2022/09/04 04:02:47;;;;;;;7.10;6.60;;;;;;;19.73;100.00;99801.13;5067249;28;20204;-68
2022/09/04 04:05:26;;;;;;;8.40;7.53;;;;;;;19.84;100.00;99803.88;5067484;28;20207;-68
2022/09/04 04:08:33;;;;;;;7.83;7.17;;;;;;;19.91;100.00;99810.41;5066790;28;20202;-68
2022/09/04 04:11:18;;;;;;;7.00;6.50;;;;;;;19.97;100.00;99823.97;5008953;28;20214;-68
2022/09/04 04:14:06;;;;;;;7.57;7.07;;;;;;;19.76;100.00;99821.75;5068848;28;20254;-68
2022/09/04 04:16:45;;;;;;;9.23;7.47;;;;;;;19.76;100.00;99816.56;5071395;28;20568;-68
2022/09/04 04:19:30;;;;;;;7.50;7.07;;;;;;;19.66;100.00;99815.44;5070862;28;20207;-68
2022/09/04 04:22:29;;;;;;;7.80;7.40;;;;;;;19.59;100.00;99821.94;5071431;28;20203;-68
2022/09/04 04:25:14;;;;;;;7.53;6.93;;;;;;;19.50;100.00;99832.88;5071796;28;20201;-68
2022/09/04 04:27:56;;;;;;;8.17;7.43;;;;;;;19.46;100.00;99835.75;5069225;28;20204;-68
2022/09/04 04:30:23;;;;;;;8.37;7.57;;;;;;;19.31;100.00;99824.47;5072895;28;20282;-68
2022/09/04 04:33:06;;;;;;;8.40;7.90;;;;;;;19.40;100.00;99839.56;5072463;28;20220;-68
2022/09/04 04:35:44;;;;;;;7.73;7.23;;;;;;;19.43;100.00;99839.38;5069553;28;20218;-69
2022/09/04 04:38:38;;;;;;;8.70;8.00;;;;;;;19.45;100.00;99847.91;5071387;28;20583;-68
2022/09/04 04:41:20;;;;;;;7.83;7.17;;;;;;;19.49;100.00;99844.22;5071107;28;20273;-68
2022/09/04 04:44:01;;;;;;;7.50;7.03;;;;;;;19.63;100.00;99862.44;5071246;28;20197;-68
2022/09/04 04:46:43;;;;;;;7.97;7.37;;;;;;;19.63;100.00;99867.63;5070784;28;20227;-68
2022/09/04 04:49:32;;;;;;;8.07;7.43;;;;;;;19.67;100.00;99865.69;5070927;28;20281;-68
2022/09/04 04:52:22;;;;;;;9.13;8.43;;;;;;;19.65;100.00;99870.97;5071180;28;20701;-68
2022/09/04 04:55:05;;;;;;;8.83;8.23;;;;;;;19.73;100.00;99876.56;5057330;28;20226;-68
2022/09/04 04:57:44;;;;;;;9.27;8.53;;;;;;;19.65;100.00;99875.34;5070914;28;20207;-68
2022/09/04 05:00:17;;;;;;;7.87;7.07;;;;;;;19.69;100.00;99887.25;5070284;28;20198;-68
2022/09/04 05:02:56;;;;;;;7.93;7.50;;;;;;;19.77;100.00;99875.44;5070707;28;20262;-68
2022/09/04 05:05:45;;;;;;;8.67;8.07;;;;;;;19.70;100.00;99879.34;5069802;28;20196;-67
2022/09/04 05:08:20;;;;;;;8.80;8.10;;;;;;;19.68;100.00;99868.19;5073759;28;20208;-68
2022/09/04 05:10:54;;;;;;;8.60;7.90;;;;;;;19.73;100.00;99886.13;5070906;28;20193;-68
2022/09/04 05:13:27;;;;;;;9.67;8.70;;;;;;;19.70;100.00;99900.16;5069410;28;20217;-68
2022/09/04 05:16:02;;;;;;;9.13;8.57;;;;;;;19.69;100.00;99908.91;5069806;28;20202;-68
2022/09/04 05:18:35;;;;;;;15.43;8.50;;;;;;;19.68;100.00;99908.97;5069676;28;21072;-68
2022/09/04 05:21:14;;;;;;;9.23;8.53;;;;;;;19.69;100.00;99903.69;5070104;28;20200;-65
2022/09/04 05:23:51;;;;;;;9.33;8.40;;;;;;;19.78;100.00;99913.53;5069776;28;20206;-68
2022/09/04 05:26:29;;;;;;;8.83;8.13;;;;;;;19.72;100.00;99897.47;5070798;28;20201;-68
2022/09/04 05:29:07;;;;;;;9.20;8.30;;;;;;;19.81;100.00;99907.31;5070339;28;20572;-68
2022/09/04 05:31:45;;;;;;;9.17;8.47;;;;;;;19.86;100.00;99926.94;5071910;28;20211;-68
2022/09/04 05:34:21;;;;;;;9.03;8.33;;;;;;;19.93;100.00;99938.63;5070657;28;20202;-68
2022/09/04 05:37:02;;;;;;;9.43;8.87;;;;;;;19.97;100.00;99934.09;5070188;28;20587;-68
2022/09/04 05:39:34;;;;;;;8.90;8.30;;;;;;;19.93;100.00;99943.03;5069834;28;20250;-68
2022/09/04 05:42:42;;;;;;;9.03;8.43;;;;;;;20.07;100.00;99934.38;5070110;28;20203;-68
2022/09/04 05:45:18;;;;;;;8.33;7.77;;;;;;;20.06;100.00;99912.75;5061842;28;20205;-68
2022/09/04 05:47:58;;;;;;;7.97;7.57;;;;;;;20.11;100.00;99935.88;5069967;28;20197;-68
2022/09/04 05:51:00;;;;;;;9.27;8.30;;;;;;;20.03;100.00;99938.09;5070289;28;20192;-68
2022/09/04 05:53:54;;;;;;;8.50;7.90;;;;;;;20.05;100.00;99942.28;5065177;28;20633;-68
2022/09/04 05:56:52;;;;;;;8.07;7.57;;;;;;;20.09;100.00;99946.38;5069806;28;20239;-68
2022/09/04 05:59:36;;;;;;;8.83;8.33;;;;;;;20.12;100.00;99953.16;5055224;28;20204;-68
2022/09/04 06:02:21;;;;;;;8.40;7.80;;;;;;;20.08;100.00;99930.84;5070991;28;20193;-68
2022/09/04 06:05:04;;;;;;;8.93;8.33;;;;;;;20.18;100.00;99931.97;5072104;28;20196;-68
2022/09/04 06:07:39;;;;;;;8.37;7.63;;;;;;;20.36;100.00;99938.66;5072906;28;20197;-68
2022/09/04 06:10:17;;;;;;;10.67;8.60;;;;;;;20.41;100.00;99929.66;5072814;28;20207;-68
2022/09/04 06:13:20;;;;;;;9.37;8.57;;;;;;;20.58;100.00;99936.41;5072218;28;20277;-68
2022/09/04 06:16:03;;;;;;;9.80;8.83;;;;;;;20.67;100.00;99941.06;5070029;28;20204;-68
2022/09/04 06:18:58;;;;;;;8.07;7.50;;;;;;;20.75;100.00;99932.75;5073699;28;20275;-70
2022/09/04 06:21:50;;;;;;;7.87;7.40;;;;;;;20.82;100.00;99934.88;5071363;28;20676;-69
2022/09/04 06:24:29;;;;;;;8.77;8.23;;;;;;;20.85;100.00;99926.84;5073602;28;20214;-68
2022/09/04 06:27:18;;;;;;;7.50;6.93;;;;;;;20.79;100.00;99929.84;5072438;28;20202;-69
2022/09/04 06:30:03;;;;;;;7.47;6.63;;;;;;;20.80;100.00;99926.31;5071802;28;20216;-69
2022/09/04 06:33:06;;;;;;;5.90;5.60;;;;;;;20.75;100.00;99930.13;5072441;28;20222;-69
2022/09/04 06:35:54;;;;;;;6.20;5.60;;;;;;;20.77;100.00;99931.72;5072422;28;20205;-69
2022/09/04 06:38:48;;;;;;;6.37;5.97;;;;;;;20.70;100.00;99930.44;5071954;28;20210;-72
2022/09/04 06:41:32;;;;;;;5.90;5.60;;;;;;;20.67;100.00;99932.41;5071847;28;20200;-73
2022/09/04 06:44:07;;;;;;;5.97;5.67;;;;;;;20.74;100.00;99938.91;5071531;28;20206;-72
2022/09/04 06:46:40;;;;;;;5.83;5.43;;;;;;;20.82;100.00;99932.25;5071837;28;20206;-72
2022/09/04 06:49:17;;;;;;;5.93;5.43;;;;;;;20.86;100.00;99931.13;5072740;28;20674;-72
2022/09/04 06:52:13;;;;;;;5.57;5.17;;;;;;;20.85;100.00;99937.28;5070832;28;20213;-68
2022/09/04 06:54:54;;;;;;;6.50;5.87;;;;;;;20.88;100.00;99934.47;5026330;28;1253334;-66
2022/09/04 06:57:39;;;;;;;10.43;6.97;;;;;;;20.91;100.00;99923.84;5072232;28;20236;-66
2022/09/04 07:00:08;;;;;;;7.30;6.57;;;;;;;21.02;100.00;99911.91;5073236;28;20203;-66
2022/09/04 07:03:05;;;;;;;6.73;6.33;;;;;;;21.33;100.00;99908.97;5072502;28;20557;-67
2022/09/04 07:05:42;;;;;;;14.27;7.50;;;;;;;21.51;100.00;99902.56;5071437;28;20762;-67
2022/09/04 07:08:20;;;;;;;5.97;5.67;;;;;;;21.60;100.00;99899.31;5072451;28;20197;-67
2022/09/04 07:10:59;;;;;;;5.47;5.07;;;;;;;21.96;99.72;99915.13;5073070;28;20688;-67
2022/09/04 07:13:44;;;;;;;5.50;5.20;;;;;;;22.34;96.96;99916.84;5071196;28;20220;-67
2022/09/04 07:16:32;;;;;;;5.87;5.40;;;;;;;22.67;96.53;99917.09;5073554;28;20284;-67
2022/09/04 07:19:31;;;;;;;9.80;6.10;;;;;;;22.86;93.07;99922.66;5071381;28;20203;-66
2022/09/04 07:22:16;;;;;;;5.20;4.83;;;;;;;22.94;93.04;99920.31;5072386;28;20236;-67
2022/09/04 07:25:02;;;;;;;5.67;5.27;;;;;;;23.07;93.29;99919.44;5071364;28;20287;-68
2022/09/04 07:27:42;;;;;;;5.37;5.17;;;;;;;23.39;93.21;99915.28;5072646;28;20203;-68
2022/09/04 07:30:11;;;;;;;7.53;7.03;;;;;;;23.69;89.96;99918.22;5072873;28;20211;-70
2022/09/04 07:32:45;;;;;;;7.43;7.13;;;;;;;23.81;90.19;99912.03;5072454;28;20593;-70
2022/09/04 07:35:19;;;;;;;6.83;6.47;;;;;;;24.20;91.10;99920.44;5070314;28;20215;-70
2022/09/04 07:37:57;;;;;;;6.03;5.73;;;;;;;24.36;86.99;99913.84;5072664;28;20203;-70
2022/09/04 07:40:30;;;;;;;7.33;6.93;;;;;;;24.57;87.31;99921.81;5074222;28;20206;-71
2022/09/04 07:43:04;;;;;;;8.03;7.43;;;;;;;24.90;87.46;99919.16;5071803;28;20192;-70
2022/09/04 07:45:37;;;;;;;7.87;7.17;;;;;;;25.16;84.88;99919.66;5072216;28;20214;-71
2022/09/04 07:48:17;;;;;;;7.60;7.13;;;;;;;25.39;82.29;99925.63;5072031;28;20200;-70
2022/09/04 07:51:03;;;;;;;8.40;7.63;;;;;;;25.07;82.09;99931.72;5072017;28;20212;-70
2022/09/04 07:54:10;;;;;;;8.40;7.67;;;;;;;24.94;81.75;99938.91;5071952;28;20247;-70
2022/09/04 07:56:54;;;;;;;8.30;7.77;;;;;;;24.92;82.44;99932.97;5071211;28;20695;-71
2022/09/04 07:59:39;;;;;;;8.53;7.80;;;;;;;25.01;82.38;99926.97;5071900;28;20575;-71
2022/09/04 08:02:26;;;;;;;7.63;7.13;;;;;;;24.75;82.31;99930.81;5072542;28;20200;-71
2022/09/04 08:05:22;;;;;;;7.10;6.57;;;;;;;24.73;83.61;99947.66;5070121;28;20556;-72
2022/09/04 08:08:22;;;;;;;7.97;7.53;;;;;;;24.56;84.72;99941.13;5070890;28;20310;-71
2022/09/04 08:11:10;;;;;;;9.30;8.50;;;;;;;24.53;84.51;99933.50;5070394;28;20580;-71
2022/09/04 08:14:09;;;;;;;8.53;8.03;;;;;;;24.45;84.78;99941.16;5058936;28;20227;-71
2022/09/04 08:16:47;;;;;;;9.43;8.73;;;;;;;24.37;84.40;99925.19;5070447;28;20699;-70
2022/09/04 08:19:27;;;;;;;9.07;8.47;;;;;;;24.51;85.30;99927.56;5071086;28;20199;-72
2022/09/04 08:21:55;;;;;;;9.23;8.47;;;;;;;24.47;85.85;99907.78;5071809;28;20200;-71
2022/09/04 08:25:00;;;;;;;10.03;9.33;;;;;;;24.56;84.90;99899.16;5070470;28;20238;-71
2022/09/04 08:27:48;;;;;;;9.43;8.70;;;;;;;24.71;83.94;99918.94;5072540;28;20200;-67
2022/09/04 08:30:19;;;;;;;9.33;8.53;;;;;;;24.91;83.49;99920.00;5071250;28;20254;-72
2022/09/04 08:33:15;;;;;;;8.73;8.03;;;;;;;25.27;84.74;99926.63;5071063;28;20603;-71
2022/09/04 08:35:53;;;;;;;9.33;8.73;;;;;;;25.66;82.81;99923.34;5070981;28;20208;-72
2022/09/04 08:38:39;;;;;;;9.23;8.53;;;;;;;25.98;79.77;99925.84;5070836;28;20196;-72
2022/09/04 08:41:40;;;;;;;8.97;8.17;;;;;;;26.19;79.73;99915.34;5070558;28;20196;-72
2022/09/04 08:44:43;;;;;;;9.53;8.70;;;;;;;26.32;79.00;99919.41;5071794;28;20228;-71
2022/09/04 08:47:36;;;;;;;10.33;9.10;;;;;;;26.44;77.46;99917.50;5071756;28;20672;-71
2022/09/04 08:50:17;;;;;;;9.33;8.63;;;;;;;26.58;76.45;99923.22;5062637;28;20206;-71
2022/09/04 08:53:24;;;;;;;9.63;9.03;;;;;;;26.76;74.69;99915.47;5070106;28;20228;-71
2022/09/04 08:56:06;;;;;;;11.73;10.73;;;;;;;26.94;77.02;99918.31;5070618;28;20223;-71
2022/09/04 08:59:24;;;;;;;33.60;17.70;;;;;;;26.88;72.97;99918.88;5071022;28;20195;-70
2022/09/04 09:02:26;;;;;;;9.73;9.03;;;;;;;26.52;74.52;99907.97;5069130;28;20211;-70
2022/09/04 09:05:30;;;;;;;13.07;10.07;;;;;;;26.43;74.04;99923.72;5070537;28;20671;-70
2022/09/04 09:08:24;;;;;;;22.53;13.73;;;;;;;26.48;74.99;99916.25;5065062;28;20207;-70
2022/09/04 09:11:23;;;;;;;15.77;11.90;;;;;;;26.73;75.28;99923.66;5066362;28;20231;-69
2022/09/04 09:14:26;;;;;;;18.63;12.43;;;;;;;26.77;72.74;99927.66;5066774;28;20311;-70
2022/09/04 09:17:11;;;;;;;9.30;8.70;;;;;;;26.83;73.14;99924.53;4988035;28;20205;-71
2022/09/04 09:19:45;;;;;;;10.43;9.53;;;;;;;26.96;74.87;99917.19;5072238;28;20204;-71
2022/09/04 09:22:36;;;;;;;12.40;11.13;;;;;;;27.04;72.54;99900.72;5070510;28;20828;-71
2022/09/04 09:25:19;;;;;;;9.80;9.00;;;;;;;26.83;71.82;99919.25;5070093;28;20588;-70
2022/09/04 09:28:28;;;;;;;10.07;9.47;;;;;;;26.90;75.54;99912.50;5066204;28;20200;-71
2022/09/04 09:31:25;;;;;;;10.23;9.53;;;;;;;27.02;72.73;99923.69;5070118;28;20211;-72
2022/09/04 09:34:26;;;;;;;10.17;9.43;;;;;;;26.93;73.43;99909.59;5069107;28;20607;-72
2022/09/04 09:37:26;;;;;;;8.47;7.97;;;;;;;27.10;72.28;99929.97;5046711;28;20204;-71
2022/09/04 09:40:21;;;;;;;9.83;9.10;;;;;;;27.13;72.57;99937.56;5064227;28;20203;-72
2022/09/04 09:43:28;;;;;;;9.03;8.53;;;;;;;27.10;70.84;99929.97;5066572;28;20205;-71
2022/09/04 09:46:28;;;;;;;9.60;9.20;;;;;;;27.01;70.62;99920.22;5068176;28;20205;-72
2022/09/04 09:49:19;;;;;;;9.07;8.57;;;;;;;27.16;71.01;99922.47;5066650;28;20200;-71
2022/09/04 09:52:14;;;;;;;9.40;8.90;;;;;;;27.12;71.72;99922.75;5066628;28;20211;-71
2022/09/04 09:55:18;;;;;;;9.03;8.33;;;;;;;27.21;72.27;99920.22;5068704;28;20200;-69
2022/09/04 09:58:24;;;;;;;8.60;8.10;;;;;;;26.98;69.56;99920.50;5068148;28;20215;-70
2022/09/04 10:01:05;;;;;;;8.47;7.97;;;;;;;26.85;71.39;99903.34;5066932;28;20214;-70
2022/09/04 10:04:10;;;;;;;9.23;8.70;;;;;;;26.90;69.49;99912.50;5069207;28;20199;-70
2022/09/04 10:07:20;;;;;;;9.23;8.60;;;;;;;26.87;70.39;99911.94;5068763;28;20211;-71
2022/09/04 10:10:09;;;;;;;8.93;8.50;;;;;;;27.10;71.89;99893.13;5068373;28;21416;-72
2022/09/04 10:13:04;;;;;;;7.90;7.43;;;;;;;27.40;68.30;99920.25;5043151;28;20231;-72
2022/09/04 10:15:57;;;;;;;8.37;7.97;;;;;;;27.62;68.25;99899.72;5069687;28;20579;-72
2022/09/04 10:19:04;;;;;;;8.77;8.37;;;;;;;27.69;67.92;99904.41;5068028;28;20212;-71
2022/09/04 10:22:12;;;;;;;9.07;8.47;;;;;;;27.69;68.33;99899.94;5068774;28;20201;-72
2022/09/04 10:25:17;;;;;;;9.40;8.90;;;;;;;27.90;70.07;99897.97;5061857;28;20207;-72
2022/09/04 10:28:05;;;;;;;9.50;8.83;;;;;;;28.19;70.15;99902.31;5062360;28;20196;-72
2022/09/04 10:30:57;;;;;;;7.43;6.83;;;;;;;28.21;64.86;99910.91;5066303;28;20215;-72
2022/09/04 10:33:38;;;;;;;8.03;7.53;;;;;;;28.12;66.95;99881.81;5067633;28;20216;-72
2022/09/04 10:36:18;;;;;;;9.03;8.33;;;;;;;28.23;66.44;99898.41;5071192;28;20211;-72
2022/09/04 10:42:19;;;;;;;8.53;8.03;;;;;;;28.41;66.12;99886.91;5072477;28;20587;-72
2022/09/04 10:45:11;;;;;;;8.23;7.73;;;;;;;28.60;65.96;99883.31;5068841;28;20209;-72
2022/09/04 10:48:04;;;;;;;9.83;9.23;;;;;;;28.46;65.15;99878.56;5067197;28;20204;-72
2022/09/04 10:50:45;;;;;;;9.20;8.60;;;;;;;28.22;65.96;99859.81;5075106;28;20204;-71
2022/09/04 10:53:35;;;;;;;9.30;8.80;;;;;;;27.90;65.83;99871.59;5072651;28;20999;-72
2022/09/04 10:56:15;;;;;;;9.33;8.70;;;;;;;27.87;66.22;99861.34;5072656;28;20223;-72
2022/09/04 10:59:08;;;;;;;9.73;9.23;;;;;;;27.84;66.88;99861.66;5073083;28;20223;-73
2022/09/04 11:02:07;;;;;;;8.93;8.33;;;;;;;28.00;66.37;99856.59;5073834;28;20586;-73
2022/09/04 11:05:14;;;;;;;8.77;8.27;;;;;;;28.12;67.21;99844.91;5069993;28;20219;-73
2022/09/04 11:08:11;;;;;;;8.60;8.20;;;;;;;28.34;66.41;99845.44;5071133;28;20249;-73
2022/09/04 11:10:57;;;;;;;7.80;7.40;;;;;;;28.35;64.62;99840.03;5070607;28;20208;-72
2022/09/04 11:13:56;;;;;;;8.83;8.33;;;;;;;28.05;64.71;99832.41;5074062;28;20223;-72
2022/09/04 11:16:46;;;;;;;8.40;8.00;;;;;;;28.03;66.65;99824.66;5072103;28;20266;-73
2022/09/04 11:19:50;;;;;;;7.87;7.27;;;;;;;28.29;64.19;99834.53;5059891;28;20221;-73
2022/09/04 11:23:08;;;;;;;8.03;7.43;;;;;;;27.83;66.14;99823.09;5072472;28;20652;-73
2022/09/04 11:26:11;;;;;;;8.80;8.40;;;;;;;27.73;68.73;99816.19;5072977;28;20576;-73
2022/09/04 11:29:18;;;;;;;11.47;8.10;;;;;;;27.73;67.37;99827.56;5072075;28;20211;-73
2022/09/04 11:32:02;;;;;;;7.93;7.57;;;;;;;27.67;66.32;99828.16;5069350;28;20207;-73
2022/09/04 11:35:12;;;;;;;8.27;7.87;;;;;;;27.78;67.63;99829.78;5071319;28;20580;-72
2022/09/04 11:38:07;;;;;;;8.13;7.73;;;;;;;27.85;67.18;99818.50;5071038;28;20683;-72
2022/09/04 11:41:11;;;;;;;9.27;8.77;;;;;;;27.98;68.75;99816.34;5068692;28;20214;-72
2022/09/04 11:43:59;;;;;;;9.07;8.57;;;;;;;28.00;67.04;99809.13;5070758;28;20207;-71
2022/09/04 11:46:50;;;;;;;8.30;7.73;;;;;;;28.21;66.96;99800.19;5071487;28;20227;-72
2022/09/04 11:49:47;;;;;;;8.00;7.43;;;;;;;28.42;66.93;99800.72;5069843;28;20218;-72
2022/09/04 11:52:25;;;;;;;6.93;6.63;;;;;;;28.40;64.25;99784.22;5069352;28;20208;-72
2022/09/04 11:55:21;;;;;;;8.10;7.43;;;;;;;28.67;63.56;99797.34;5070018;28;20220;-72
2022/09/04 11:58:17;;;;;;;8.43;7.93;;;;;;;28.46;64.68;99784.44;5069740;28;20207;-72
2022/09/04 12:00:58;;;;;;;8.50;7.67;;;;;;;28.56;64.62;99779.09;5071457;28;20204;-72
2022/09/04 12:03:58;;;;;;;7.27;6.87;;;;;;;28.62;64.35;99773.22;5070084;28;20705;-72
2022/09/04 12:06:41;;;;;;;9.17;8.50;;;;;;;28.75;66.18;99765.75;5067852;28;20583;-72
2022/09/04 12:09:40;;;;;;;8.57;7.97;;;;;;;28.83;63.61;99776.38;5067409;28;20208;-72
2022/09/04 12:12:52;;;;;;;7.50;6.80;;;;;;;28.49;63.35;99764.84;5069496;28;20224;-72
2022/09/04 12:15:43;;;;;;;7.57;7.23;;;;;;;28.15;63.99;99778.69;5069819;28;20204;-72
2022/09/04 12:18:40;;;;;;;7.13;6.73;;;;;;;28.07;63.23;99770.72;5068745;28;20222;-72
2022/09/04 12:21:39;;;;;;;7.80;7.30;;;;;;;28.11;63.92;99774.69;5070253;28;20326;-71
2022/09/04 12:24:39;;;;;;;6.77;6.37;;;;;;;28.02;62.73;99777.34;5044499;28;20196;-72
2022/09/04 12:27:26;;;;;;;7.13;6.83;;;;;;;27.93;63.46;99779.06;5066696;28;20201;-72
2022/09/04 12:30:06;;;;;;;6.57;6.27;;;;;;;27.82;62.93;99779.25;5069507;28;20630;-71
2022/09/04 12:33:09;;;;;;;7.00;6.50;;;;;;;27.97;63.33;99772.53;5070100;28;20211;-72
2022/09/04 12:36:16;;;;;;;6.53;6.23;;;;;;;27.95;64.55;99760.50;5068834;28;20200;-71
2022/09/04 12:39:19;;;;;;;6.43;6.13;;;;;;;27.80;63.60;99759.31;5069284;28;20584;-71
2022/09/04 12:41:57;;;;;;;7.53;7.13;;;;;;;27.86;63.92;99763.97;5066711;28;20200;-72
2022/09/04 12:44:38;;;;;;;6.10;5.70;;;;;;;27.79;63.58;99757.66;5070060;28;20203;-73
2022/09/04 12:47:20;;;;;;;6.73;6.43;;;;;;;27.89;63.92;99759.25;5070321;28;20204;-72
2022/09/04 12:50:04;;;;;;;7.07;6.67;;;;;;;28.06;64.35;99753.22;5068500;28;20291;-72
2022/09/04 12:52:46;;;;;;;5.57;5.37;;;;;;;28.12;63.35;99749.16;5069352;28;20660;-72
2022/09/04 12:55:22;;;;;;;7.23;6.73;;;;;;;27.97;64.92;99747.97;5071772;28;20687;-72
2022/09/04 12:58:04;;;;;;;6.70;6.40;;;;;;;27.95;66.48;99758.66;5071145;28;21626;-72